Аэропорт: Минеральные Воды. Минеральные Воды

ICAO: URMM

METAR:
2021-04-21 20:30:00
URMM 212030Z VRB01MPS 9999 BKN058 09/07 Q1021 R30/090070 NOSIG RMK QFE737/0983
METAR:
2021-04-21 17:00:00
TAF URMM 211700Z 2118/2218 09003G08MPS 9999 BKN016 TX13/2212Z TN08/2203Z TEMPO 2118/2218 VRB01MPS 6000 -SHRA BKN016 BKN020CB